Time;durP1;ratioP1;P1;durP2;ratioP2;P2;SDS_P1;SDS_P2;PMS_P1;PMS_P2;Temp;Humidity;BMP_temperature;BMP_pressure;BME280_temperature;BME280_humidity;BME280_pressure;Samples;Min_cycle;Max_cycle;Signal;HPM_P1;HPM_P2
2023/04/03 00:02:15;;;;;;;15.18;5.68;;;;;;;;;;5051912;28;20175;-67
2023/04/03 00:04:41;;;;;;;10.88;5.53;;;;;;;;;;5054228;28;20024;-67
2023/04/03 00:07:07;;;;;;;14.13;5.55;;;;;;;;;;5059381;28;20475;-68
2023/04/03 00:09:32;;;;;;;11.23;5.38;;;;;;;;;;5054009;28;20091;-67
2023/04/03 00:11:58;;;;;;;11.20;5.10;;;;;;;;;;5054344;28;20501;-68
2023/04/03 00:14:24;;;;;;;8.80;5.32;;;;;;;;;;5053683;28;20033;-68
2023/04/03 00:16:49;;;;;;;9.30;5.20;;;;;;;;;;5053842;28;20037;-69
2023/04/03 00:19:15;;;;;;;14.95;5.32;;;;;;;;;;5053584;28;20092;-68
2023/04/03 00:21:41;;;;;;;11.93;5.53;;;;;;;;;;5053367;28;20568;-68
2023/04/03 00:24:06;;;;;;;11.75;5.43;;;;;;;;;;5054836;28;20056;-68
2023/04/03 00:26:32;;;;;;;8.77;4.63;;;;;;;;;;5059408;28;20036;-68
2023/04/03 00:28:58;;;;;;;10.70;5.57;;;;;;;;;;5074468;28;20025;-68
2023/04/03 00:31:24;;;;;;;11.20;4.90;;;;;;;;;;5064405;28;20040;-68
2023/04/03 00:33:49;;;;;;;14.45;6.03;;;;;;;;;;5053211;28;20046;-68
2023/04/03 00:36:15;;;;;;;11.52;5.40;;;;;;;;;;5053306;28;20087;-68
2023/04/03 00:38:41;;;;;;;10.98;6.03;;;;;;;;;;5053491;28;20021;-68
2023/04/03 00:41:07;;;;;;;12.88;6.25;;;;;;;;;;5053195;28;20025;-68
2023/04/03 00:43:33;;;;;;;11.45;5.95;;;;;;;;;;5051952;28;20021;-68
2023/04/03 00:45:59;;;;;;;13.85;5.90;;;;;;;;;;5053380;28;20029;-69
2023/04/03 00:48:42;;;;;;;12.60;6.18;;;;;;;;;;5072371;28;20549;-68
2023/04/03 00:51:13;;;;;;;11.15;5.35;;;;;;;;;;5062107;28;20037;-69
2023/04/03 00:53:44;;;;;;;11.10;6.30;;;;;;;;;;5052042;28;20041;-69
2023/04/03 00:56:14;;;;;;;11.77;5.57;;;;;;;;;;5051850;28;20076;-68
2023/04/03 00:58:46;;;;;;;15.55;6.30;;;;;;;;;;5053107;28;20079;-68
2023/04/03 01:01:18;;;;;;;13.20;7.30;;;;;;;;;;5053119;28;20191;-69
2023/04/03 01:03:44;;;;;;;13.18;6.28;;;;;;;;;;5051344;28;20048;-68
2023/04/03 01:06:23;;;;;;;13.38;6.55;;;;;;;;;;5052400;28;20020;-68
2023/04/03 01:08:50;;;;;;;15.52;7.18;;;;;;;;;;5050920;28;20032;-67
2023/04/03 01:11:15;;;;;;;13.55;6.90;;;;;;;;;;5052394;28;20385;-68
2023/04/03 01:13:42;;;;;;;15.25;6.68;;;;;;;;;;5051159;28;20143;-68
2023/04/03 01:16:08;;;;;;;13.55;6.05;;;;;;;;;;5051210;28;20119;-67
2023/04/03 01:18:38;;;;;;;13.02;6.10;;;;;;;;;;5050827;28;20037;-68
2023/04/03 01:21:07;;;;;;;12.40;6.70;;;;;;;;;;5051752;28;20100;-68
2023/04/03 01:23:38;;;;;;;16.08;6.60;;;;;;;;;;5052120;28;20483;-68
2023/04/03 01:26:05;;;;;;;13.68;6.13;;;;;;;;;;5050870;28;20114;-67
2023/04/03 01:28:33;;;;;;;12.60;6.70;;;;;;;;;;5052294;28;20073;-67
2023/04/03 01:31:26;;;;;;;10.70;6.07;;;;;;;;;;5050772;28;20021;-67
2023/04/03 01:33:54;;;;;;;9.13;5.22;;;;;;;;;;5042447;28;20074;-67
2023/04/03 01:36:27;;;;;;;9.80;5.32;;;;;;;;;;5050198;28;20371;-68
2023/04/03 01:38:54;;;;;;;8.35;5.32;;;;;;;;;;5043298;28;20029;-68
2023/04/03 01:41:21;;;;;;;8.95;5.70;;;;;;;;;;5050298;28;20029;-68
2023/04/03 01:43:48;;;;;;;10.77;6.05;;;;;;;;;;5051293;28;20032;-68
2023/04/03 01:46:15;;;;;;;11.60;6.13;;;;;;;;;;5051372;28;20125;-68
2023/04/03 01:48:42;;;;;;;10.73;5.38;;;;;;;;;;5051480;28;20379;-68
2023/04/03 01:51:08;;;;;;;12.40;5.93;;;;;;;;;;5051255;28;20028;-68
2023/04/03 01:53:34;;;;;;;9.60;5.65;;;;;;;;;;5051195;28;20036;-69
2023/04/03 01:56:00;;;;;;;11.70;5.70;;;;;;;;;;5047220;28;20391;-68
2023/04/03 01:58:26;;;;;;;11.55;6.10;;;;;;;;;;5051114;28;20044;-68
2023/04/03 02:00:54;;;;;;;10.05;6.25;;;;;;;;;;5040801;28;20399;-68
2023/04/03 02:03:20;;;;;;;10.48;5.82;;;;;;;;;;5051048;28;20028;-68
2023/04/03 02:05:46;;;;;;;13.68;6.38;;;;;;;;;;5050848;28;20052;-68
2023/04/03 02:08:12;;;;;;;12.68;6.72;;;;;;;;;;5042584;28;20484;-68
2023/04/03 02:10:38;;;;;;;13.77;6.53;;;;;;;;;;5047795;28;20044;-68
2023/04/03 02:13:05;;;;;;;10.90;6.78;;;;;;;;;;5032615;28;20033;-68
2023/04/03 02:15:31;;;;;;;11.65;6.55;;;;;;;;;;5045344;28;20078;-68
2023/04/03 02:17:57;;;;;;;12.90;6.97;;;;;;;;;;5046688;28;20558;-68
2023/04/03 02:20:23;;;;;;;13.82;6.97;;;;;;;;;;5052070;28;20471;-68
2023/04/03 02:22:49;;;;;;;9.80;6.00;;;;;;;;;;5050659;28;20035;-68
2023/04/03 02:25:15;;;;;;;14.10;6.75;;;;;;;;;;5050090;28;20405;-68
2023/04/03 02:27:41;;;;;;;11.68;6.68;;;;;;;;;;5049300;28;20039;-67
2023/04/03 02:30:09;;;;;;;12.18;6.53;;;;;;;;;;5049475;28;20029;-69
2023/04/03 02:32:35;;;;;;;13.50;6.55;;;;;;;;;;5064931;28;20032;-67
2023/04/03 02:35:01;;;;;;;12.93;6.40;;;;;;;;;;5069926;28;20113;-67
2023/04/03 02:37:28;;;;;;;17.63;7.35;;;;;;;;;;5069365;28;20032;-67
2023/04/03 02:39:54;;;;;;;12.82;6.75;;;;;;;;;;5069352;28;20505;-67
2023/04/03 02:42:20;;;;;;;16.33;8.07;;;;;;;;;;5056268;28;20037;-67
2023/04/03 02:44:46;;;;;;;16.55;6.93;;;;;;;;;;5049847;28;20040;-67
2023/04/03 02:47:12;;;;;;;13.82;6.72;;;;;;;;;;5047895;28;20025;-67
2023/04/03 02:49:37;;;;;;;17.92;7.18;;;;;;;;;;5049417;28;20090;-67
2023/04/03 02:52:03;;;;;;;17.25;8.32;;;;;;;;;;5058901;28;20028;-67
2023/04/03 02:54:30;;;;;;;15.23;7.90;;;;;;;;;;5053129;28;20028;-68
2023/04/03 02:56:59;;;;;;;14.75;8.20;;;;;;;;;;5059178;28;20041;-68
2023/04/03 02:59:25;;;;;;;12.63;7.78;;;;;;;;;;5049358;28;20029;-68
2023/04/03 03:01:51;;;;;;;14.07;7.97;;;;;;;;;;5057622;28;20044;-67
2023/04/03 03:04:16;;;;;;;10.93;7.32;;;;;;;;;;5069701;28;20033;-67
2023/04/03 03:06:42;;;;;;;19.35;7.95;;;;;;;;;;5063190;28;20037;-68
2023/04/03 03:09:08;;;;;;;13.13;7.53;;;;;;;;;;5044885;28;20027;-67
2023/04/03 03:11:34;;;;;;;16.15;7.70;;;;;;;;;;5049337;28;20074;-67
2023/04/03 03:14:01;;;;;;;13.93;8.05;;;;;;;;;;5050010;28;20028;-67
2023/04/03 03:16:27;;;;;;;14.65;8.23;;;;;;;;;;5051163;28;20033;-67
2023/04/03 03:18:53;;;;;;;18.35;8.70;;;;;;;;;;5048047;28;20025;-67
2023/04/03 03:21:19;;;;;;;16.90;8.20;;;;;;;;;;5051353;28;20439;-67
2023/04/03 03:23:44;;;;;;;14.73;8.32;;;;;;;;;;5045152;28;20399;-67
2023/04/03 03:26:11;;;;;;;13.82;8.30;;;;;;;;;;5049890;28;20028;-67
2023/04/03 03:28:38;;;;;;;14.60;7.88;;;;;;;;;;5049828;28;20100;-67
2023/04/03 03:31:05;;;;;;;17.00;8.95;;;;;;;;;;5049736;28;20024;-68
2023/04/03 03:33:32;;;;;;;15.43;9.20;;;;;;;;;;5046084;28;20025;-67
2023/04/03 03:35:59;;;;;;;15.18;8.02;;;;;;;;;;5049014;28;20132;-68
2023/04/03 03:38:25;;;;;;;17.08;9.15;;;;;;;;;;5047942;28;20116;-68
2023/04/03 03:40:52;;;;;;;12.38;7.03;;;;;;;;;;5051556;28;20040;-69
2023/04/03 03:43:20;;;;;;;14.95;7.30;;;;;;;;;;5053460;28;20372;-69
2023/04/03 03:45:52;;;;;;;13.80;7.88;;;;;;;;;;5051343;28;20528;-69
2023/04/03 03:48:18;;;;;;;13.88;7.70;;;;;;;;;;5052544;28;20059;-69
2023/04/03 03:50:44;;;;;;;13.93;8.20;;;;;;;;;;5051656;28;20394;-69
2023/04/03 03:53:10;;;;;;;16.42;8.65;;;;;;;;;;5049953;28;20036;-69
2023/04/03 03:55:37;;;;;;;15.35;8.75;;;;;;;;;;5053248;28;20043;-69
2023/04/03 03:58:03;;;;;;;22.77;9.30;;;;;;;;;;5054019;28;20033;-69
2023/04/03 04:00:31;;;;;;;16.55;8.80;;;;;;;;;;5036495;28;20545;-69
2023/04/03 04:02:57;;;;;;;16.10;9.00;;;;;;;;;;5036255;28;20041;-69
2023/04/03 04:05:24;;;;;;;15.48;8.27;;;;;;;;;;5052843;28;20021;-70
2023/04/03 04:07:52;;;;;;;15.82;8.57;;;;;;;;;;5046182;28;20455;-70
2023/04/03 04:10:18;;;;;;;16.30;8.50;;;;;;;;;;5052642;28;20036;-69
2023/04/03 04:12:45;;;;;;;18.05;8.05;;;;;;;;;;5052713;28;20064;-69
2023/04/03 04:15:12;;;;;;;13.75;8.00;;;;;;;;;;5051534;28;20343;-69
2023/04/03 04:17:39;;;;;;;16.23;8.07;;;;;;;;;;5050133;28;20430;-70
2023/04/03 04:20:08;;;;;;;15.43;8.85;;;;;;;;;;5052889;28;20036;-68
2023/04/03 04:22:35;;;;;;;17.55;9.25;;;;;;;;;;5052809;28;20380;-70
2023/04/03 04:25:01;;;;;;;15.38;8.70;;;;;;;;;;5052943;28;20020;-69
2023/04/03 04:27:27;;;;;;;17.73;8.75;;;;;;;;;;5034309;28;20064;-70
2023/04/03 04:29:53;;;;;;;14.90;7.55;;;;;;;;;;5046055;28;20051;-70
2023/04/03 04:32:21;;;;;;;14.45;8.52;;;;;;;;;;5030916;28;20058;-69
2023/04/03 04:34:47;;;;;;;16.40;7.90;;;;;;;;;;5052427;28;20029;-69
2023/04/03 04:37:13;;;;;;;17.50;8.77;;;;;;;;;;5052349;28;20060;-70
2023/04/03 04:39:39;;;;;;;13.25;7.55;;;;;;;;;;5035399;28;20495;-70
2023/04/03 04:42:06;;;;;;;14.90;7.28;;;;;;;;;;5052136;28;20029;-70
2023/04/03 04:44:33;;;;;;;18.15;7.72;;;;;;;;;;5052047;28;20487;-69
2023/04/03 04:46:59;;;;;;;14.07;7.93;;;;;;;;;;5051929;28;20060;-70
2023/04/03 04:49:25;;;;;;;14.02;6.45;;;;;;;;;;5050699;28;20533;-70
2023/04/03 04:51:52;;;;;;;12.23;6.57;;;;;;;;;;5048067;28;20640;-70
2023/04/03 04:54:24;;;;;;;12.98;5.80;;;;;;;;;;5048354;28;20387;-69
2023/04/03 04:56:51;;;;;;;12.65;5.38;;;;;;;;;;5051397;28;20111;-70
2023/04/03 04:59:17;;;;;;;8.85;4.72;;;;;;;;;;5051548;28;20076;-69
2023/04/03 05:01:43;;;;;;;9.02;5.00;;;;;;;;;;5051574;28;20044;-69
2023/04/03 05:04:14;;;;;;;9.15;4.47;;;;;;;;;;5051620;28;20028;-69
2023/04/03 05:06:41;;;;;;;6.65;3.83;;;;;;;;;;5051961;28;20090;-69
2023/04/03 05:09:12;;;;;;;7.35;3.03;;;;;;;;;;5051531;28;20021;-70
2023/04/03 05:11:41;;;;;;;7.25;3.35;;;;;;;;;;5034395;28;20041;-69
2023/04/03 05:14:07;;;;;;;7.00;2.58;;;;;;;;;;5051112;28;20020;-69
2023/04/03 05:16:35;;;;;;;4.43;2.60;;;;;;;;;;5051177;28;20068;-69
2023/04/03 05:19:00;;;;;;;4.25;2.35;;;;;;;;;;5051789;28;20471;-70
2023/04/03 05:21:31;;;;;;;3.65;2.00;;;;;;;;;;5051948;28;20068;-68
2023/04/03 05:24:02;;;;;;;5.55;2.20;;;;;;;;;;5045822;28;20021;-69
2023/04/03 05:26:31;;;;;;;3.15;1.70;;;;;;;;;;5051989;28;20060;-69
2023/04/03 05:29:04;;;;;;;4.00;2.00;;;;;;;;;;5051231;28;20017;-69
2023/04/03 05:31:30;;;;;;;4.72;2.10;;;;;;;;;;5047656;28;20040;-69
2023/04/03 05:33:56;;;;;;;5.07;2.40;;;;;;;;;;5043199;28;20025;-69
2023/04/03 05:36:23;;;;;;;4.63;2.25;;;;;;;;;;5051795;28;20497;-69
2023/04/03 05:38:56;;;;;;;6.32;2.53;;;;;;;;;;5050409;28;20031;-68
2023/04/03 05:41:23;;;;;;;5.43;2.58;;;;;;;;;;5050410;28;20079;-68
2023/04/03 05:43:49;;;;;;;5.78;2.65;;;;;;;;;;5050727;28;20040;-68
2023/04/03 05:46:18;;;;;;;5.63;2.92;;;;;;;;;;5050286;28;20033;-69
2023/04/03 05:48:47;;;;;;;8.45;3.28;;;;;;;;;;5051133;28;20025;-69
2023/04/03 05:51:25;;;;;;;5.95;2.50;;;;;;;;;;5050401;28;20047;-70
2023/04/03 05:54:07;;;;;;;3.75;2.20;;;;;;;;;;5050875;28;20036;-69
2023/04/03 05:56:33;;;;;;;4.25;2.13;;;;;;;;;;5050597;28;20029;-69
2023/04/03 05:58:58;;;;;;;4.43;2.35;;;;;;;;;;5049667;28;20033;-70
2023/04/03 06:01:25;;;;;;;6.75;2.58;;;;;;;;;;5051564;28;20047;-69
2023/04/03 06:03:51;;;;;;;4.10;2.25;;;;;;;;;;5051769;28;20375;-69
2023/04/03 06:06:17;;;;;;;5.63;2.70;;;;;;;;;;5050621;28;20095;-69
2023/04/03 06:08:43;;;;;;;6.15;2.60;;;;;;;;;;5051828;28;20127;-70
2023/04/03 06:11:11;;;;;;;5.90;2.83;;;;;;;;;;5048900;28;20036;-70
2023/04/03 06:13:37;;;;;;;5.05;2.65;;;;;;;;;;5046461;28;20320;-69
2023/04/03 06:16:03;;;;;;;4.68;2.60;;;;;;;;;;5051398;28;20399;-69
2023/04/03 06:18:29;;;;;;;6.30;2.65;;;;;;;;;;5050125;28;20112;-69
2023/04/03 06:20:55;;;;;;;5.43;2.58;;;;;;;;;;5048648;28;20040;-69
2023/04/03 06:23:21;;;;;;;5.53;2.63;;;;;;;;;;5048265;28;20025;-69
2023/04/03 06:25:47;;;;;;;6.63;2.67;;;;;;;;;;5051259;28;20386;-68
2023/04/03 06:28:13;;;;;;;6.80;3.03;;;;;;;;;;5051113;28;20118;-70
2023/04/03 06:30:39;;;;;;;4.85;2.70;;;;;;;;;;5048878;28;20033;-70
2023/04/03 06:33:04;;;;;;;5.13;2.60;;;;;;;;;;5049921;28;20029;-71
2023/04/03 06:35:30;;;;;;;6.50;2.30;;;;;;;;;;5047144;28;20067;-69
2023/04/03 06:37:57;;;;;;;3.53;2.10;;;;;;;;;;5050789;28;20052;-68
2023/04/03 06:40:25;;;;;;;3.60;1.85;;;;;;;;;;5049265;28;20025;-69
2023/04/03 06:42:51;;;;;;;4.68;2.20;;;;;;;;;;5047428;28;20016;-70
2023/04/03 06:45:19;;;;;;;5.38;2.58;;;;;;;;;;5045600;28;20036;-71
2023/04/03 06:47:45;;;;;;;4.35;2.50;;;;;;;;;;5050423;28;20123;-71
2023/04/03 06:50:13;;;;;;;4.90;2.30;;;;;;;;;;5050109;28;20535;-69
2023/04/03 06:52:40;;;;;;;4.22;2.35;;;;;;;;;;5050242;28;20025;-69
2023/04/03 06:55:06;;;;;;;5.20;2.80;;;;;;;;;;5050006;28;20029;-69
2023/04/03 06:57:32;;;;;;;4.03;2.20;;;;;;;;;;5051248;28;20033;-70
2023/04/03 06:59:58;;;;;;;7.00;2.60;;;;;;;;;;5047871;28;20601;-72
2023/04/03 07:02:23;;;;;;;4.93;2.40;;;;;;;;;;5048060;28;20399;-72
2023/04/03 07:04:50;;;;;;;4.35;2.30;;;;;;;;;;5047805;28;20064;-71
2023/04/03 07:07:17;;;;;;;3.72;1.98;;;;;;;;;;5048334;28;20060;-72
2023/04/03 07:09:43;;;;;;;4.28;2.00;;;;;;;;;;5050678;28;20055;-72
2023/04/03 07:12:09;;;;;;;4.13;2.20;;;;;;;;;;5046484;28;20063;-71
2023/04/03 07:14:35;;;;;;;3.55;2.05;;;;;;;;;;5054511;28;20053;-73
2023/04/03 07:17:02;;;;;;;5.93;2.30;;;;;;;;;;5054193;28;20163;-69
2023/04/03 07:19:28;;;;;;;4.28;2.33;;;;;;;;;;5053522;28;20075;-71
2023/04/03 07:21:54;;;;;;;5.70;2.00;;;;;;;;;;5053686;28;20063;-72
2023/04/03 07:24:21;;;;;;;5.95;2.75;;;;;;;;;;5053531;28;20033;-72
2023/04/03 07:26:51;;;;;;;5.28;2.25;;;;;;;;;;5054038;28;20410;-72
2023/04/03 07:29:17;;;;;;;5.78;2.00;;;;;;;;;;5054380;28;20060;-72
2023/04/03 07:31:43;;;;;;;3.55;2.10;;;;;;;;;;5053900;28;20079;-69
2023/04/03 07:34:09;;;;;;;4.30;2.17;;;;;;;;;;5053972;28;20543;-71
2023/04/03 07:36:35;;;;;;;6.03;2.15;;;;;;;;;;5049422;28;20037;-71
2023/04/03 07:39:02;;;;;;;3.78;2.13;;;;;;;;;;5050549;28;20060;-71
2023/04/03 07:41:28;;;;;;;3.05;1.92;;;;;;;;;;5051669;28;20032;-70
2023/04/03 07:43:56;;;;;;;4.20;2.40;;;;;;;;;;5054163;28;20036;-69
2023/04/03 07:46:22;;;;;;;3.97;2.35;;;;;;;;;;5053266;28;20021;-70
2023/04/03 07:48:47;;;;;;;4.38;2.15;;;;;;;;;;5052548;28;20542;-69
2023/04/03 07:51:13;;;;;;;5.40;2.20;;;;;;;;;;5051892;28;20024;-71
2023/04/03 07:53:39;;;;;;;3.47;1.83;;;;;;;;;;5052723;28;20098;-70
2023/04/03 07:56:05;;;;;;;3.97;1.92;;;;;;;;;;5051102;28;20363;-70
2023/04/03 07:58:31;;;;;;;4.25;2.05;;;;;;;;;;5051644;28;20048;-70
2023/04/03 08:00:57;;;;;;;10.75;2.58;;;;;;;;;;5052454;28;20028;-70
2023/04/03 08:03:23;;;;;;;4.18;2.13;;;;;;;;;;5053700;28;20032;-69
2023/04/03 08:05:50;;;;;;;2.38;1.70;;;;;;;;;;5052773;28;20048;-69
2023/04/03 08:08:19;;;;;;;5.13;2.20;;;;;;;;;;5054127;28;20164;-70
2023/04/03 08:10:52;;;;;;;5.75;2.30;;;;;;;;;;5054069;28;20031;-68
2023/04/03 08:13:19;;;;;;;3.67;1.88;;;;;;;;;;5052424;28;20044;-68
2023/04/03 08:15:45;;;;;;;5.10;2.38;;;;;;;;;;5053888;28;20025;-69
2023/04/03 08:18:10;;;;;;;4.45;2.63;;;;;;;;;;5053374;28;20102;-69
2023/04/03 08:20:38;;;;;;;4.75;2.72;;;;;;;;;;5053370;28;20140;-69
2023/04/03 08:23:04;;;;;;;4.22;2.40;;;;;;;;;;5052935;28;20046;-68
2023/04/03 08:25:30;;;;;;;5.07;2.58;;;;;;;;;;5053557;28;20035;-69
2023/04/03 08:27:56;;;;;;;5.63;3.13;;;;;;;;;;5053594;28;20035;-69
2023/04/03 08:30:22;;;;;;;4.13;2.58;;;;;;;;;;5052057;28;20488;-70
2023/04/03 08:32:47;;;;;;;4.30;2.58;;;;;;;;;;5053540;28;20032;-68
2023/04/03 08:35:13;;;;;;;5.05;2.53;;;;;;;;;;5053963;28;20382;-69
2023/04/03 08:37:40;;;;;;;8.75;3.20;;;;;;;;;;5054259;28;20065;-68
2023/04/03 08:40:11;;;;;;;4.60;2.78;;;;;;;;;;5054760;28;20452;-69
2023/04/03 08:42:45;;;;;;;5.00;2.88;;;;;;;;;;5053277;28;20025;-71
2023/04/03 08:45:55;;;;;;;4.20;2.60;;;;;;;;;;5053100;28;20116;-69
2023/04/03 08:48:26;;;;;;;7.88;2.88;;;;;;;;;;5053152;28;20029;-69
2023/04/03 08:50:59;;;;;;;7.35;2.90;;;;;;;;;;5052994;28;20036;-69
2023/04/03 08:53:32;;;;;;;5.03;1.90;;;;;;;;;;5053329;28;20835;-71
2023/04/03 08:56:00;;;;;;;2.67;1.50;;;;;;;;;;5052957;28;20094;-69
2023/04/03 08:58:30;;;;;;;10.82;2.30;;;;;;;;;;5052952;28;20033;-70
2023/04/03 09:01:37;;;;;;;2.97;1.50;;;;;;;;;;5053171;28;20109;-68
2023/04/03 09:04:14;;;;;;;5.13;2.10;;;;;;;;;;5047853;28;20716;-69
2023/04/03 09:06:54;;;;;;;7.28;2.47;;;;;;;;;;5053090;28;20067;-69
2023/04/03 09:09:35;;;;;;;4.50;2.20;;;;;;;;;;5051175;28;20116;-68
2023/04/03 09:12:14;;;;;;;3.53;1.90;;;;;;;;;;5050241;28;20069;-69
2023/04/03 09:15:02;;;;;;;5.78;2.33;;;;;;;;;;5047110;28;20086;-68
2023/04/03 09:17:54;;;;;;;5.53;2.05;;;;;;;;;;5051298;28;20025;-70
2023/04/03 09:20:33;;;;;;;5.18;2.38;;;;;;;;;;5044922;28;20487;-69
2023/04/03 09:22:59;;;;;;;6.25;2.03;;;;;;;;;;5049228;28;20098;-71
2023/04/03 09:25:32;;;;;;;3.33;1.67;;;;;;;;;;5047003;28;20021;-69
2023/04/03 09:28:01;;;;;;;4.85;2.03;;;;;;;;;;5051350;28;20032;-70
2023/04/03 09:30:28;;;;;;;4.35;1.52;;;;;;;;;;5050544;28;20454;-68
2023/04/03 09:32:56;;;;;;;3.80;1.70;;;;;;;;;;5049481;28;20048;-69
2023/04/03 09:35:26;;;;;;;4.45;2.05;;;;;;;;;;5045861;28;20132;-70
2023/04/03 09:37:54;;;;;;;5.57;1.77;;;;;;;;;;5049545;28;20072;-70
2023/04/03 09:40:26;;;;;;;5.90;2.10;;;;;;;;;;5048684;28;20506;-71
2023/04/03 09:43:19;;;;;;;8.77;2.50;;;;;;;;;;5051291;28;20163;-70
2023/04/03 09:45:47;;;;;;;3.60;1.88;;;;;;;;;;5045307;28;20064;-70
2023/04/03 09:48:15;;;;;;;5.55;2.50;;;;;;;;;;5046531;28;20035;-71
2023/04/03 09:51:02;;;;;;;6.28;2.20;;;;;;;;;;5049364;28;20025;-70
2023/04/03 09:53:42;;;;;;;9.32;2.35;;;;;;;;;;5048289;28;20033;-71
2023/04/03 09:56:17;;;;;;;4.38;2.40;;;;;;;;;;5047040;28;20557;-68
2023/04/03 09:58:59;;;;;;;6.15;2.45;;;;;;;;;;5044906;28;20033;-73
2023/04/03 10:01:30;;;;;;;5.28;2.08;;;;;;;;;;5041512;28;20037;-73
2023/04/03 10:04:11;;;;;;;4.53;2.28;;;;;;;;;;5048495;28;20048;-73
2023/04/03 10:06:46;;;;;;;7.07;2.40;;;;;;;;;;5044042;28;20200;-72
2023/04/03 10:09:24;;;;;;;3.72;1.52;;;;;;;;;;5044717;28;20025;-72
2023/04/03 10:12:14;;;;;;;4.43;2.10;;;;;;;;;;5048551;28;20045;-73
2023/04/03 10:14:55;;;;;;;4.28;1.50;;;;;;;;;;5053085;28;20045;-77
2023/04/03 10:17:22;;;;;;;3.30;1.40;;;;;;;;;;5045968;28;20037;-73
2023/04/03 10:19:53;;;;;;;3.40;1.75;;;;;;;;;;5045611;28;20460;-72
2023/04/03 10:23:06;;;;;;;3.45;1.60;;;;;;;;;;5053631;28;20025;-72
2023/04/03 10:25:48;;;;;;;2.22;1.30;;;;;;;;;;5048755;28;20033;-73
2023/04/03 10:28:41;;;;;;;6.05;2.15;;;;;;;;;;5043949;28;20117;-72
2023/04/03 10:31:28;;;;;;;1.83;1.20;;;;;;;;;;5049895;28;20116;-72
2023/04/03 10:34:23;;;;;;;2.55;1.33;;;;;;;;;;5032019;28;20403;-72
2023/04/03 10:37:37;;;;;;;2.67;1.38;;;;;;;;;;5049589;28;20111;-72
2023/04/03 10:40:32;;;;;;;2.05;1.30;;;;;;;;;;5049574;28;20033;-72
2023/04/03 10:43:09;;;;;;;1.60;1.10;;;;;;;;;;5047349;28;20060;-71
2023/04/03 10:45:43;;;;;;;1.98;1.00;;;;;;;;;;5050905;28;20086;-71
2023/04/03 10:48:47;;;;;;;2.33;1.35;;;;;;;;;;5043142;28;20044;-70
2023/04/03 10:51:28;;;;;;;3.92;1.40;;;;;;;;;;5042813;28;20040;-72
2023/04/03 10:54:00;;;;;;;3.53;1.50;;;;;;;;;;5048482;28;20124;-73
2023/04/03 10:56:38;;;;;;;2.55;1.38;;;;;;;;;;5051209;28;20086;-72
2023/04/03 10:59:31;;;;;;;5.85;1.65;;;;;;;;;;5049664;28;20025;-73
2023/04/03 11:02:11;;;;;;;4.72;1.98;;;;;;;;;;5049651;28;20037;-71
2023/04/03 11:04:41;;;;;;;7.82;2.70;;;;;;;;;;5050513;28;20033;-72
2023/04/03 11:07:21;;;;;;;9.20;3.17;;;;;;;;;;5050753;28;20035;-71
2023/04/03 11:10:09;;;;;;;9.20;3.40;;;;;;;;;;5050210;28;20510;-73
2023/04/03 11:13:06;;;;;;;6.97;5.10;;;;;;;;;;5050644;28;20102;-71
2023/04/03 11:15:33;;;;;;;10.18;5.07;;;;;;;;;;5050867;28;20040;-71
2023/04/03 11:18:15;;;;;;;6.50;4.20;;;;;;;;;;5049294;28;20032;-70
2023/04/03 11:20:47;;;;;;;8.35;4.28;;;;;;;;;;5050808;28;20402;-71
2023/04/03 11:23:25;;;;;;;9.75;6.20;;;;;;;;;;5042709;28;20036;-70
2023/04/03 11:25:54;;;;;;;7.10;3.60;;;;;;;;;;5044669;28;20107;-72
2023/04/03 11:28:20;;;;;;;9.93;4.63;;;;;;;;;;5050432;28;20017;-70
2023/04/03 11:31:02;;;;;;;6.53;4.30;;;;;;;;;;5049241;28;20483;-71
2023/04/03 11:33:44;;;;;;;10.68;4.88;;;;;;;;;;5050472;28;20037;-70
2023/04/03 11:36:21;;;;;;;7.82;3.92;;;;;;;;;;5051037;28;20463;-71
2023/04/03 11:38:51;;;;;;;10.50;4.35;;;;;;;;;;5050982;28;20405;-72
2023/04/03 11:41:24;;;;;;;13.15;6.30;;;;;;;;;;5050342;28;20036;-71
2023/04/03 11:44:06;;;;;;;8.23;3.30;;;;;;;;;;5050407;28;20049;-72
2023/04/03 11:47:02;;;;;;;6.47;2.85;;;;;;;;;;5050717;28;20061;-72
2023/04/03 11:49:56;;;;;;;7.50;3.33;;;;;;;;;;5038484;28;20033;-71
2023/04/03 11:52:38;;;;;;;4.15;1.60;;;;;;;;;;5044287;28;20044;-71
2023/04/03 11:55:20;;;;;;;2.75;1.30;;;;;;;;;;5045830;28;20511;-72
2023/04/03 11:57:58;;;;;;;2.75;1.23;;;;;;;;;;5047042;28;20037;-71
2023/04/03 12:00:56;;;;;;;2.67;1.00;;;;;;;;;;5047860;28;20519;-71
2023/04/03 12:03:24;;;;;;;2.58;1.20;;;;;;;;;;5048693;28;20051;-72
2023/04/03 12:06:06;;;;;;;3.33;1.15;;;;;;;;;;5048746;28;20048;-72
2023/04/03 12:08:35;;;;;;;3.87;1.37;;;;;;;;;;5049233;28;20175;-72
2023/04/03 12:11:14;;;;;;;2.22;1.20;;;;;;;;;;5047638;28;20326;-72
2023/04/03 12:13:48;;;;;;;2.92;1.67;;;;;;;;;;5049143;28;20525;-71
2023/04/03 12:16:33;;;;;;;3.67;2.17;;;;;;;;;;5046719;28;20037;-71
2023/04/03 12:19:00;;;;;;;3.03;1.50;;;;;;;;;;5047843;28;20033;-71
2023/04/03 12:21:34;;;;;;;5.63;2.20;;;;;;;;;;5049056;28;20040;-70
2023/04/03 12:24:22;;;;;;;4.85;1.40;;;;;;;;;;5048695;28;20036;-71
2023/04/03 12:27:17;;;;;;;5.22;1.83;;;;;;;;;;5046705;28;20030;-71
2023/04/03 12:29:57;;;;;;;4.90;1.80;;;;;;;;;;5050547;28;20123;-71
2023/04/03 12:32:25;;;;;;;1.92;1.20;;;;;;;;;;5049600;28;20079;-70
2023/04/03 12:35:10;;;;;;;1.45;1.05;;;;;;;;;;5047479;28;20126;-69
2023/04/03 12:38:01;;;;;;;2.80;1.73;;;;;;;;;;5048964;28;20104;-72
2023/04/03 12:40:39;;;;;;;2.38;1.30;;;;;;;;;;5049846;28;20048;-72
2023/04/03 12:43:23;;;;;;;0.63;0.60;;;;;;;;;;5049434;28;20124;-73
2023/04/03 12:46:00;;;;;;;3.90;0.77;;;;;;;;;;5049942;28;20036;-72
2023/04/03 12:48:30;;;;;;;1.10;0.82;;;;;;;;;;5045429;28;20102;-73
2023/04/03 12:50:57;;;;;;;3.60;0.80;;;;;;;;;;5047132;28;20521;-72
2023/04/03 12:53:33;;;;;;;2.67;1.35;;;;;;;;;;5049069;28;20043;-73
2023/04/03 12:56:26;;;;;;;3.30;0.85;;;;;;;;;;5046766;28;20136;-74
2023/04/03 12:58:54;;;;;;;2.97;0.90;;;;;;;;;;5048271;28;20147;-73
2023/04/03 13:01:23;;;;;;;5.20;2.63;;;;;;;;;;5048368;28;20021;-72
2023/04/03 13:03:53;;;;;;;3.88;1.60;;;;;;;;;;5047192;28;20044;-72
2023/04/03 13:06:30;;;;;;;1.17;0.90;;;;;;;;;;5048679;28;20067;-71
2023/04/03 13:09:00;;;;;;;1.83;0.82;;;;;;;;;;5048615;28;20037;-72
2023/04/03 13:11:30;;;;;;;1.35;0.90;;;;;;;;;;5050059;28;20162;-72
2023/04/03 13:14:05;;;;;;;2.53;1.00;;;;;;;;;;5048719;28;20044;-71
2023/04/03 13:16:33;;;;;;;2.47;0.90;;;;;;;;;;5047597;28;20076;-71
2023/04/03 13:18:59;;;;;;;3.25;1.30;;;;;;;;;;5049083;28;20454;-72
2023/04/03 13:21:34;;;;;;;3.83;1.30;;;;;;;;;;5049521;28;20060;-71
2023/04/03 13:24:03;;;;;;;3.15;1.02;;;;;;;;;;5050283;28;20097;-72
2023/04/03 13:26:32;;;;;;;1.65;1.00;;;;;;;;;;5047454;28;20032;-72
2023/04/03 13:29:29;;;;;;;4.07;1.40;;;;;;;;;;5048586;28;20037;-70
2023/04/03 13:31:58;;;;;;;2.53;1.20;;;;;;;;;;5045091;28;20111;-71
2023/04/03 13:34:26;;;;;;;2.85;1.17;;;;;;;;;;5048860;28;20139;-70
2023/04/03 13:36:54;;;;;;;3.53;1.85;;;;;;;;;;5048023;28;20049;-70
2023/04/03 13:39:25;;;;;;;2.45;0.88;;;;;;;;;;5047390;28;20091;-71
2023/04/03 13:41:53;;;;;;;4.10;1.20;;;;;;;;;;5048100;28;20128;-70
2023/04/03 13:44:21;;;;;;;4.18;1.50;;;;;;;;;;5048526;28;20103;-71
2023/04/03 13:46:55;;;;;;;3.28;1.60;;;;;;;;;;5047690;28;20124;-70
2023/04/03 13:49:20;;;;;;;;;;;;;;;;;;5048788;28;20041;-70
2023/04/03 13:51:47;;;;;;;4.82;1.75;;;;;;;;;;5046517;28;19909;-72
2023/04/03 13:54:30;;;;;;;4.60;1.73;;;;;;;;;;5047075;28;20071;-71
2023/04/03 13:56:59;;;;;;;8.25;2.47;;;;;;;;;;5047869;28;20438;-71
2023/04/03 13:59:30;;;;;;;10.10;2.80;;;;;;;;;;5048344;28;20056;-70
2023/04/03 14:02:02;;;;;;;4.22;2.00;;;;;;;;;;5045923;28;20546;-72
2023/04/03 14:04:32;;;;;;;6.75;2.15;;;;;;;;;;5048154;28;20033;-72
2023/04/03 14:06:59;;;;;;;8.60;2.53;;;;;;;;;;5046385;28;20487;-73
2023/04/03 14:09:27;;;;;;;5.78;2.28;;;;;;;;;;5047337;28;20483;-71
2023/04/03 14:12:04;;;;;;;4.95;2.45;;;;;;;;;;5046725;28;20102;-71
2023/04/03 14:14:33;;;;;;;6.95;2.80;;;;;;;;;;5045854;28;20694;-71
2023/04/03 14:17:02;;;;;;;11.30;2.50;;;;;;;;;;5047965;28;20118;-71
2023/04/03 14:19:34;;;;;;;7.28;2.28;;;;;;;;;;5068660;28;20049;-70
2023/04/03 14:22:10;;;;;;;5.80;2.00;;;;;;;;;;5047052;28;20036;-70
2023/04/03 14:24:36;;;;;;;7.40;3.10;;;;;;;;;;5046636;28;20521;-70
2023/04/03 14:27:02;;;;;;;7.82;2.60;;;;;;;;;;5046736;28;20033;-71
2023/04/03 14:29:28;;;;;;;5.28;2.38;;;;;;;;;;5045213;28;20114;-71
2023/04/03 14:31:53;;;;;;;4.18;1.85;;;;;;;;;;5045759;28;20081;-71
2023/04/03 14:34:19;;;;;;;3.25;1.60;;;;;;;;;;5047334;28;20049;-71
2023/04/03 14:36:46;;;;;;;3.83;1.80;;;;;;;;;;5046156;28;20085;-71
2023/04/03 14:39:17;;;;;;;2.13;0.95;;;;;;;;;;5045652;28;20132;-71
2023/04/03 14:41:45;;;;;;;2.00;1.30;;;;;;;;;;5046430;28;20067;-70
2023/04/03 14:44:11;;;;;;;3.85;1.50;;;;;;;;;;5047309;28;20387;-71
2023/04/03 14:46:42;;;;;;;4.10;1.20;;;;;;;;;;5043675;28;20048;-71
2023/04/03 14:49:21;;;;;;;4.18;1.40;;;;;;;;;;5046728;28;20471;-71
2023/04/03 14:51:47;;;;;;;5.43;1.98;;;;;;;;;;5045342;28;20486;-71
2023/04/03 14:54:21;;;;;;;2.35;1.67;;;;;;;;;;5046339;28;20075;-71
2023/04/03 14:56:47;;;;;;;4.13;1.63;;;;;;;;;;5047172;28;20043;-71
2023/04/03 14:59:15;;;;;;;5.38;1.95;;;;;;;;;;5046728;28;20398;-71
2023/04/03 15:01:41;;;;;;;4.70;2.15;;;;;;;;;;5045364;28;20053;-70